createdAt,value
2022-11-13T00:02:45.835Z,14.68
2022-11-13T00:05:32.483Z,15.35
2022-11-13T00:08:19.147Z,15.57
2022-11-13T00:11:07.870Z,14.23
2022-11-13T00:13:55.869Z,13.02
2022-11-13T00:16:42.586Z,13.60
2022-11-13T00:19:29.312Z,13.02
2022-11-13T00:22:16.456Z,13.55
2022-11-13T00:25:04.207Z,13.38
2022-11-13T00:27:50.564Z,13.15
2022-11-13T00:30:38.533Z,14.18
2022-11-13T00:33:45.569Z,14.65
2022-11-13T00:36:32.287Z,13.40
2022-11-13T00:39:18.993Z,14.20
2022-11-13T00:42:05.480Z,15.43
2022-11-13T00:44:51.852Z,14.18
2022-11-13T00:47:39.867Z,14.23
2022-11-13T00:50:26.759Z,14.98
2022-11-13T00:53:17.953Z,14.18
2022-11-13T00:56:05.110Z,15.45
2022-11-13T00:58:51.495Z,16.00
2022-11-13T01:01:38.364Z,14.70
2022-11-13T01:04:26.514Z,15.30
2022-11-13T01:07:13.589Z,14.73
2022-11-13T01:10:01.071Z,14.45
2022-11-13T01:12:47.948Z,15.00
2022-11-13T01:15:34.933Z,15.23
2022-11-13T01:18:21.539Z,14.90
2022-11-13T01:21:16.100Z,15.93
2022-11-13T01:24:02.582Z,14.70
2022-11-13T01:26:48.962Z,14.25
2022-11-13T01:29:35.617Z,15.32
2022-11-13T01:32:22.263Z,15.32
2022-11-13T01:35:09.088Z,17.00
2022-11-13T01:37:57.155Z,16.30
2022-11-13T01:40:46.459Z,16.73
2022-11-13T01:43:35.347Z,15.23
2022-11-13T01:46:26.141Z,15.68
2022-11-13T01:49:30.421Z,15.95
2022-11-13T01:52:20.421Z,16.77
2022-11-13T01:55:12.638Z,16.50
2022-11-13T01:57:59.953Z,13.70
2022-11-13T02:00:47.445Z,14.88
2022-11-13T02:03:33.810Z,14.15
2022-11-13T02:06:22.515Z,14.80
2022-11-13T02:09:10.816Z,14.27
2022-11-13T02:11:59.291Z,13.57
2022-11-13T02:14:50.350Z,12.90
2022-11-13T02:17:40.727Z,13.65
2022-11-13T02:20:38.688Z,14.23
2022-11-13T02:23:35.603Z,13.50
2022-11-13T02:26:26.282Z,15.00
2022-11-13T02:29:12.955Z,11.40
2022-11-13T02:31:59.469Z,11.98
2022-11-13T02:34:45.871Z,12.75
2022-11-13T02:37:32.552Z,13.82
2022-11-13T02:40:20.034Z,9.23
2022-11-13T02:43:07.884Z,14.70
2022-11-13T02:45:54.961Z,12.50
2022-11-13T02:48:41.823Z,12.55
2022-11-13T02:51:28.242Z,12.27
2022-11-13T02:54:17.067Z,13.77
2022-11-13T02:57:03.971Z,13.93
2022-11-13T02:59:52.092Z,13.68
2022-11-13T03:02:40.486Z,13.32
2022-11-13T03:05:26.964Z,15.02
2022-11-13T03:08:15.623Z,15.18
2022-11-13T03:11:08.729Z,14.35
2022-11-13T03:13:55.249Z,11.90
2022-11-13T03:16:43.355Z,14.38
2022-11-13T03:19:30.968Z,13.00
2022-11-13T03:22:17.656Z,15.70
2022-11-13T03:25:09.861Z,14.05
2022-11-13T03:27:57.122Z,13.88
2022-11-13T03:30:43.962Z,13.15
2022-11-13T03:33:32.328Z,13.40
2022-11-13T03:36:18.867Z,14.63
2022-11-13T03:39:05.797Z,15.05
2022-11-13T03:41:52.282Z,14.70
2022-11-13T03:44:38.779Z,13.93
2022-11-13T03:47:25.440Z,15.52
2022-11-13T03:50:13.644Z,15.98
2022-11-13T03:53:00.349Z,15.43
2022-11-13T03:55:47.225Z,16.73
2022-11-13T03:58:37.316Z,16.25
2022-11-13T04:01:26.540Z,14.48
2022-11-13T04:04:13.372Z,16.45
2022-11-13T04:07:01.063Z,17.15
2022-11-13T04:09:47.543Z,16.80
2022-11-13T04:12:36.092Z,17.08
2022-11-13T04:15:22.935Z,14.85
2022-11-13T04:18:09.471Z,17.90
2022-11-13T04:21:00.364Z,16.73
2022-11-13T04:23:48.311Z,16.83
2022-11-13T04:26:34.724Z,16.33
2022-11-13T04:29:21.274Z,17.02
2022-11-13T04:32:07.799Z,16.83
2022-11-13T04:34:54.455Z,15.50
2022-11-13T04:37:41.225Z,16.05
2022-11-13T04:40:29.553Z,16.75
2022-11-13T04:43:14.922Z,17.27
2022-11-13T04:46:01.543Z,16.77
2022-11-13T04:48:48.354Z,16.35
2022-11-13T04:51:34.975Z,15.73
2022-11-13T04:54:27.391Z,16.55
2022-11-13T04:57:16.784Z,16.02
2022-11-13T05:00:03.478Z,16.67
2022-11-13T05:02:50.015Z,16.05
2022-11-13T05:05:36.272Z,16.50
2022-11-13T05:08:22.821Z,15.73
2022-11-13T05:11:09.600Z,16.40
2022-11-13T05:14:03.089Z,15.73
2022-11-13T05:16:50.006Z,16.55
2022-11-13T05:19:36.713Z,15.52
2022-11-13T05:22:23.354Z,15.68
2022-11-13T05:25:10.136Z,17.33
2022-11-13T05:27:58.579Z,15.43
2022-11-13T05:30:46.927Z,16.92
2022-11-13T05:33:33.673Z,14.88
2022-11-13T05:36:20.919Z,15.52
2022-11-13T05:39:08.035Z,14.88
2022-11-13T05:41:54.712Z,14.95
2022-11-13T05:44:41.297Z,15.23
2022-11-13T05:47:29.466Z,16.60
2022-11-13T05:50:16.674Z,16.05
2022-11-13T05:53:03.318Z,15.70
2022-11-13T05:55:50.086Z,16.10
2022-11-13T05:58:37.096Z,16.60
2022-11-13T06:01:27.326Z,16.75
2022-11-13T06:04:15.599Z,16.38
2022-11-13T06:07:02.385Z,16.20
2022-11-13T06:09:49.075Z,18.75
2022-11-13T06:12:38.136Z,15.95
2022-11-13T06:15:24.700Z,17.45
2022-11-13T06:18:11.553Z,17.83
2022-11-13T06:21:03.692Z,17.25
2022-11-13T06:23:50.286Z,16.75
2022-11-13T06:26:39.651Z,16.45
2022-11-13T06:29:26.423Z,17.25
2022-11-13T06:32:13.566Z,18.65
2022-11-13T06:34:59.871Z,18.33
2022-11-13T06:37:48.097Z,18.88
2022-11-13T06:40:34.485Z,18.50
2022-11-13T06:43:21.124Z,18.92
2022-11-13T06:46:11.051Z,19.13
2022-11-13T06:48:57.922Z,17.73
2022-11-13T06:51:44.673Z,18.00
2022-11-13T06:54:32.614Z,19.05
2022-11-13T06:57:19.096Z,17.25
2022-11-13T07:00:07.230Z,14.38
2022-11-13T07:02:56.066Z,16.90
2022-11-13T07:05:42.659Z,17.85
2022-11-13T07:08:29.767Z,15.73
2022-11-13T07:11:19.684Z,18.20
2022-11-13T07:14:06.160Z,16.23
2022-11-13T07:17:10.030Z,18.70
2022-11-13T07:19:57.075Z,19.02
2022-11-13T07:22:43.781Z,17.88
2022-11-13T07:25:31.202Z,17.55
2022-11-13T07:28:18.797Z,18.80
2022-11-13T07:31:06.068Z,18.10
2022-11-13T07:33:52.934Z,17.92
2022-11-13T07:36:39.368Z,18.08
2022-11-13T07:39:26.061Z,17.67
2022-11-13T07:42:13.143Z,16.75
2022-11-13T07:45:01.151Z,17.30
2022-11-13T07:47:47.579Z,18.00
2022-11-13T07:50:36.501Z,18.42
2022-11-13T07:53:24.041Z,18.88
2022-11-13T07:56:10.445Z,17.60
2022-11-13T07:58:57.142Z,18.80
2022-11-13T08:01:45.030Z,18.15
2022-11-13T08:04:32.056Z,18.65
2022-11-13T08:07:18.672Z,17.35
2022-11-13T08:10:05.938Z,17.10
2022-11-13T08:12:59.684Z,19.35
2022-11-13T08:15:46.022Z,17.63
2022-11-13T08:18:36.426Z,16.10
2022-11-13T08:21:25.550Z,16.33
2022-11-13T08:24:12.518Z,17.95
2022-11-13T08:26:59.173Z,18.70
2022-11-13T08:29:45.808Z,17.15
2022-11-13T08:32:32.609Z,19.10
2022-11-13T08:35:25.254Z,17.38
2022-11-13T08:38:17.661Z,16.83
2022-11-13T08:41:09.311Z,18.42
2022-11-13T08:43:56.582Z,16.95
2022-11-13T08:46:43.274Z,16.50
2022-11-13T08:49:29.898Z,16.67
2022-11-13T08:52:17.960Z,16.65
2022-11-13T08:55:04.872Z,15.40
2022-11-13T08:57:51.678Z,14.98
2022-11-13T09:00:38.298Z,16.27
2022-11-13T09:03:24.971Z,17.20
2022-11-13T09:06:11.728Z,17.88
2022-11-13T09:08:59.906Z,17.15
2022-11-13T09:11:46.702Z,18.52
2022-11-13T09:14:33.020Z,16.65
2022-11-13T09:17:19.790Z,15.10
2022-11-13T09:20:12.680Z,16.15
2022-11-13T09:23:01.467Z,14.63
2022-11-13T09:25:50.057Z,14.95
2022-11-13T09:28:36.716Z,15.00
2022-11-13T09:31:23.392Z,16.33
2022-11-13T09:34:10.128Z,15.52
2022-11-13T09:37:00.033Z,16.20
2022-11-13T09:39:46.763Z,14.98
2022-11-13T09:42:37.926Z,13.35
2022-11-13T09:45:24.917Z,15.48
2022-11-13T09:48:21.954Z,14.98
2022-11-13T09:51:14.426Z,15.20
2022-11-13T09:54:05.649Z,16.10
2022-11-13T09:56:58.623Z,14.15
2022-11-13T09:59:52.494Z,14.13
2022-11-13T10:02:51.217Z,15.32
2022-11-13T10:05:44.058Z,13.52
2022-11-13T10:08:36.768Z,16.13
2022-11-13T10:11:32.743Z,15.68
2022-11-13T10:14:23.525Z,15.90
2022-11-13T10:17:19.728Z,14.60
2022-11-13T10:20:13.137Z,15.82
2022-11-13T10:23:07.973Z,16.45
2022-11-13T10:26:05.466Z,16.05
2022-11-13T10:29:02.500Z,16.27
2022-11-13T10:31:51.058Z,17.17
2022-11-13T10:34:40.755Z,16.08
2022-11-13T10:37:41.007Z,18.02
2022-11-13T10:40:28.201Z,17.60
2022-11-13T10:43:17.964Z,17.05
2022-11-13T10:46:06.648Z,19.05
2022-11-13T10:48:53.727Z,15.98
2022-11-13T10:51:42.742Z,14.90
2022-11-13T10:54:32.728Z,20.48
2022-11-13T10:57:30.084Z,17.48
2022-11-13T11:00:28.247Z,18.88
2022-11-13T11:03:17.373Z,18.85
2022-11-13T11:06:05.749Z,17.75
2022-11-13T11:08:55.013Z,17.25
2022-11-13T11:11:59.052Z,18.30
2022-11-13T11:15:16.533Z,18.50
2022-11-13T11:18:05.897Z,18.67
2022-11-13T11:20:55.313Z,17.15
2022-11-13T11:23:49.477Z,18.17
2022-11-13T11:26:43.713Z,14.90
2022-11-13T11:29:38.412Z,17.23
2022-11-13T11:32:30.620Z,18.05
2022-11-13T11:35:20.795Z,16.40
2022-11-13T11:38:14.911Z,16.15
2022-11-13T11:41:14.984Z,16.35
2022-11-13T11:44:12.877Z,14.18
2022-11-13T11:47:00.123Z,14.57
2022-11-13T11:49:46.806Z,16.70
2022-11-13T11:52:49.079Z,14.95
2022-11-13T11:56:01.302Z,16.00
2022-11-13T11:59:02.731Z,15.48
2022-11-13T12:02:25.611Z,15.15
2022-11-13T12:05:24.558Z,14.95
2022-11-13T12:08:22.197Z,13.43
2022-11-13T12:11:15.333Z,15.25
2022-11-13T12:14:13.627Z,15.75
2022-11-13T12:17:16.819Z,14.57
2022-11-13T12:20:26.078Z,12.93
2022-11-13T12:23:31.891Z,14.20
2022-11-13T12:26:25.974Z,14.93
2022-11-13T12:29:25.505Z,14.52
2022-11-13T12:32:25.551Z,13.75
2022-11-13T12:35:17.777Z,15.85
2022-11-13T12:38:14.633Z,15.18
2022-11-13T12:41:10.699Z,14.07
2022-11-13T12:44:23.827Z,16.20
2022-11-13T12:47:11.039Z,15.27
2022-11-13T12:50:02.481Z,15.98
2022-11-13T12:53:00.171Z,15.25
2022-11-13T12:55:59.917Z,15.15
2022-11-13T12:59:28.404Z,16.35
2022-11-13T13:02:30.152Z,15.70
2022-11-13T13:05:36.258Z,15.88
2022-11-13T13:09:13.406Z,14.95
2022-11-13T13:12:07.887Z,14.13
2022-11-13T13:15:12.871Z,14.63
2022-11-13T13:18:10.032Z,15.57
2022-11-13T13:21:06.185Z,14.65
2022-11-13T13:23:56.761Z,17.23
2022-11-13T13:26:48.295Z,16.15
2022-11-13T13:29:38.486Z,16.45
2022-11-13T13:32:32.601Z,16.35
2022-11-13T13:35:24.811Z,16.42
2022-11-13T13:38:19.449Z,17.35
2022-11-13T13:41:22.730Z,17.90
2022-11-13T13:44:46.923Z,14.70
2022-11-13T13:47:38.944Z,14.85
2022-11-13T13:50:27.221Z,15.68
2022-11-13T13:53:19.435Z,15.07
2022-11-13T13:56:12.320Z,17.38
2022-11-13T13:59:00.373Z,16.05
2022-11-13T14:01:58.316Z,16.92
2022-11-13T14:04:47.090Z,15.18
2022-11-13T14:07:35.834Z,15.70
2022-11-13T14:10:24.017Z,15.65
2022-11-13T14:13:13.964Z,16.27
2022-11-13T14:16:02.945Z,16.75
2022-11-13T14:18:51.155Z,15.68
2022-11-13T14:21:37.894Z,15.18
2022-11-13T14:24:28.023Z,14.88
2022-11-13T14:27:19.713Z,16.17
2022-11-13T14:30:10.889Z,16.80
2022-11-13T14:33:00.079Z,16.17
2022-11-13T14:35:55.924Z,15.98
2022-11-13T14:38:50.547Z,14.68
2022-11-13T14:41:41.586Z,14.68
2022-11-13T14:44:31.953Z,15.60
2022-11-13T14:47:25.146Z,15.80
2022-11-13T14:50:22.434Z,14.80
2022-11-13T14:53:11.513Z,15.70
2022-11-13T14:56:01.315Z,14.73
2022-11-13T14:58:48.516Z,15.48
2022-11-13T15:01:35.793Z,15.57
2022-11-13T15:04:22.482Z,15.32
2022-11-13T15:07:24.831Z,15.05
2022-11-13T15:10:15.638Z,15.50
2022-11-13T15:13:06.495Z,15.57
2022-11-13T15:15:52.895Z,15.43
2022-11-13T15:18:47.660Z,15.50
2022-11-13T15:21:34.563Z,16.88
2022-11-13T15:24:21.207Z,16.85
2022-11-13T15:27:13.912Z,16.98
2022-11-13T15:30:00.656Z,15.75
2022-11-13T15:32:51.112Z,15.05
2022-11-13T15:35:37.838Z,14.60
2022-11-13T15:38:24.653Z,15.68
2022-11-13T15:41:14.454Z,14.45
2022-11-13T15:44:05.872Z,16.45
2022-11-13T15:46:52.852Z,15.88
2022-11-13T15:49:43.460Z,15.77
2022-11-13T15:52:41.170Z,16.30
2022-11-13T15:55:30.496Z,14.23
2022-11-13T15:58:17.126Z,14.85
2022-11-13T16:01:05.320Z,15.35
2022-11-13T16:03:52.110Z,15.82
2022-11-13T16:06:38.753Z,14.55
2022-11-13T16:09:25.213Z,13.20
2022-11-13T16:12:12.766Z,15.15
2022-11-13T16:14:59.291Z,15.55
2022-11-13T16:17:50.463Z,13.52
2022-11-13T16:20:43.322Z,15.43
2022-11-13T16:23:29.976Z,12.98
2022-11-13T16:26:19.922Z,16.92
2022-11-13T16:29:17.509Z,14.75
2022-11-13T16:32:04.228Z,14.13
2022-11-13T16:34:54.417Z,14.68
2022-11-13T16:37:40.969Z,15.10
2022-11-13T16:40:28.151Z,15.57
2022-11-13T16:43:14.560Z,14.85
2022-11-13T16:46:01.900Z,13.25
2022-11-13T16:48:48.978Z,15.05
2022-11-13T16:51:36.699Z,14.90
2022-11-13T16:54:23.527Z,13.18
2022-11-13T16:57:13.400Z,14.27
2022-11-13T17:00:00.172Z,12.98
2022-11-13T17:02:47.053Z,15.32
2022-11-13T17:05:36.266Z,14.75
2022-11-13T17:08:27.502Z,15.45
2022-11-13T17:11:14.955Z,15.27
2022-11-13T17:14:02.639Z,14.20
2022-11-13T17:16:49.378Z,15.80
2022-11-13T17:19:40.693Z,16.42
2022-11-13T17:22:27.283Z,14.50
2022-11-13T17:25:15.613Z,16.00
2022-11-13T17:28:01.964Z,13.75
2022-11-13T17:30:48.613Z,14.57
2022-11-13T17:33:36.438Z,14.25
2022-11-13T17:36:23.344Z,14.68
2022-11-13T17:39:09.766Z,15.75
2022-11-13T17:41:58.011Z,16.27
2022-11-13T17:44:44.632Z,15.40
2022-11-13T17:47:33.946Z,15.82
2022-11-13T17:50:20.730Z,16.60
2022-11-13T17:53:08.202Z,14.93
2022-11-13T17:55:58.096Z,15.57
2022-11-13T17:58:46.721Z,15.15
2022-11-13T18:01:33.690Z,16.60
2022-11-13T18:04:20.433Z,16.63
2022-11-13T18:07:07.530Z,16.55
2022-11-13T18:09:53.849Z,14.15
2022-11-13T18:12:40.658Z,16.05
2022-11-13T18:15:28.582Z,16.23
2022-11-13T18:18:15.638Z,14.00
2022-11-13T18:21:21.682Z,12.73
2022-11-13T18:24:12.935Z,15.10
2022-11-13T18:27:01.330Z,13.45
2022-11-13T18:29:48.021Z,15.55
2022-11-13T18:32:36.504Z,13.98
2022-11-13T18:35:23.261Z,13.95
2022-11-13T18:38:09.992Z,14.48
2022-11-13T18:41:02.017Z,15.52
2022-11-13T18:43:50.239Z,16.33
2022-11-13T18:46:38.874Z,15.95
2022-11-13T18:49:26.695Z,14.07
2022-11-13T18:52:13.674Z,12.13
2022-11-13T18:55:00.136Z,15.02
2022-11-13T18:57:46.938Z,13.30
2022-11-13T19:00:33.346Z,12.63
2022-11-13T19:03:20.339Z,13.63
2022-11-13T19:06:09.927Z,12.48
2022-11-13T19:08:57.637Z,13.48
2022-11-13T19:11:45.389Z,13.48
2022-11-13T19:14:31.883Z,12.75
2022-11-13T19:17:19.860Z,13.05
2022-11-13T19:20:07.760Z,13.57
2022-11-13T19:22:56.127Z,13.00
2022-11-13T19:25:42.555Z,14.93
2022-11-13T19:28:29.981Z,13.88
2022-11-13T19:31:18.624Z,14.32
2022-11-13T19:34:07.135Z,14.13
2022-11-13T19:36:54.850Z,13.57
2022-11-13T19:39:43.244Z,13.68
2022-11-13T19:42:30.077Z,12.30
2022-11-13T19:45:16.857Z,13.57
2022-11-13T19:48:03.375Z,13.48
2022-11-13T19:50:51.281Z,12.93
2022-11-13T19:53:38.815Z,13.73
2022-11-13T19:56:28.173Z,12.40
2022-11-13T19:59:14.806Z,13.80
2022-11-13T20:02:01.423Z,13.45
2022-11-13T20:04:47.994Z,14.70
2022-11-13T20:07:34.825Z,15.25
2022-11-13T20:10:21.496Z,15.23
2022-11-13T20:13:09.861Z,17.48
2022-11-13T20:15:58.935Z,14.90
2022-11-13T20:18:45.968Z,13.65
2022-11-13T20:21:32.382Z,15.60
2022-11-13T20:24:18.947Z,14.20
2022-11-13T20:27:05.888Z,16.75
2022-11-13T20:29:54.753Z,15.82
2022-11-13T20:32:41.380Z,13.73
2022-11-13T20:35:27.814Z,14.07
2022-11-13T20:38:14.607Z,15.38
2022-11-13T20:41:05.413Z,15.68
2022-11-13T20:43:53.186Z,14.07
2022-11-13T20:46:40.903Z,12.77
2022-11-13T20:49:27.619Z,13.13
2022-11-13T20:52:14.133Z,14.77
2022-11-13T20:55:00.740Z,12.90
2022-11-13T20:57:47.436Z,13.40
2022-11-13T21:00:34.069Z,14.38
2022-11-13T21:03:21.970Z,13.63
2022-11-13T21:06:10.178Z,13.50
2022-11-13T21:08:57.986Z,14.07
2022-11-13T21:11:44.503Z,13.07
2022-11-13T21:14:31.074Z,12.98
2022-11-13T21:17:20.866Z,15.02
2022-11-13T21:20:10.350Z,11.98
2022-11-13T21:22:57.665Z,13.20
2022-11-13T21:25:44.575Z,14.35
2022-11-13T21:28:33.671Z,14.85
2022-11-13T21:31:21.936Z,14.23
2022-11-13T21:34:11.493Z,13.60
2022-11-13T21:37:02.516Z,13.48
2022-11-13T21:39:49.422Z,13.07
2022-11-13T21:42:35.920Z,12.70
2022-11-13T21:45:25.570Z,14.02
2022-11-13T21:48:12.111Z,12.35
2022-11-13T21:50:59.266Z,11.68
2022-11-13T21:53:47.613Z,12.35
2022-11-13T21:56:37.301Z,10.05
2022-11-13T21:59:23.617Z,10.98
2022-11-13T22:02:13.052Z,12.57
2022-11-13T22:04:59.738Z,11.90
2022-11-13T22:07:46.328Z,12.40
2022-11-13T22:10:34.309Z,11.88
2022-11-13T22:13:21.023Z,12.13
2022-11-13T22:16:09.255Z,11.25
2022-11-13T22:18:56.453Z,11.50
2022-11-13T22:21:43.837Z,11.40
2022-11-13T22:24:30.804Z,10.10
2022-11-13T22:27:18.638Z,11.02
2022-11-13T22:30:05.841Z,12.13
2022-11-13T22:32:52.503Z,11.30
2022-11-13T22:35:39.210Z,13.23
2022-11-13T22:38:25.773Z,11.35
2022-11-13T22:41:18.790Z,11.52
2022-11-13T22:44:16.401Z,12.10
2022-11-13T22:47:02.871Z,11.93
2022-11-13T22:49:49.585Z,11.93
2022-11-13T22:52:36.424Z,10.82
2022-11-13T22:55:22.762Z,11.93
2022-11-13T22:58:09.310Z,12.35
2022-11-13T23:00:57.489Z,12.60
2022-11-13T23:03:46.383Z,12.77
2022-11-13T23:06:34.888Z,12.82
2022-11-13T23:09:21.573Z,12.07
2022-11-13T23:12:09.507Z,12.55
2022-11-13T23:14:56.021Z,12.00
2022-11-13T23:17:43.693Z,12.40
2022-11-13T23:20:30.326Z,11.80
2022-11-13T23:23:17.621Z,12.60
2022-11-13T23:26:04.303Z,12.52
2022-11-13T23:28:51.036Z,13.35
2022-11-13T23:31:37.658Z,13.68
2022-11-13T23:34:45.301Z,12.40
2022-11-13T23:37:32.162Z,13.23
2022-11-13T23:40:18.941Z,12.77
2022-11-13T23:43:05.439Z,12.25
2022-11-13T23:45:52.130Z,12.73
2022-11-13T23:48:40.126Z,13.43
2022-11-13T23:51:28.499Z,11.75
2022-11-13T23:54:15.353Z,12.73
2022-11-13T23:57:01.825Z,12.43
2022-11-13T23:59:48.728Z,14.85
